Time;durP1;ratioP1;P1;durP2;ratioP2;P2;SDS_P1;SDS_P2;PMS_P1;PMS_P2;Temp;Humidity;BMP_temperature;BMP_pressure;BME280_temperature;BME280_humidity;BME280_pressure;Samples;Min_cycle;Max_cycle;Signal;HPM_P1;HPM_P2
2022/08/19 06:02:19;;;;;;;2.45;1.70;;;;;;;;;;6316369;22;20107;-84
2022/08/19 06:04:44;;;;;;;2.50;1.83;;;;;;;;;;6371182;22;20010;-83
2022/08/19 06:07:10;;;;;;;3.15;2.35;;;;;;;;;;6371168;22;20026;-83
2022/08/19 06:09:37;;;;;;;3.67;2.17;;;;;;;;;;6371072;22;20419;-83
2022/08/19 06:12:04;;;;;;;2.55;2.20;;;;;;;;;;6371038;22;20014;-84
2022/08/19 06:14:33;;;;;;;4.18;2.30;;;;;;;;;;6370977;22;20002;-83
2022/08/19 06:17:00;;;;;;;4.05;2.13;;;;;;;;;;6370763;22;19998;-83
2022/08/19 09:33:06;;;;;;;4.97;2.30;;;;;;;;;;6346973;22;20482;-84
2022/08/19 09:35:31;;;;;;;3.80;2.22;;;;;;;;;;6369360;22;20077;-83
2022/08/19 09:37:58;;;;;;;3.65;2.40;;;;;;;;;;6371470;22;20455;-83
2022/08/19 09:40:25;;;;;;;6.80;2.47;;;;;;;;;;6371097;22;20010;-84
2022/08/19 09:42:50;;;;;;;5.18;2.83;;;;;;;;;;6371150;22;20002;-87
2022/08/19 09:45:20;;;;;;;6.13;2.85;;;;;;;;;;6371498;22;20333;-87
2022/08/19 09:47:45;;;;;;;4.50;2.55;;;;;;;;;;6371505;22;20017;-86
2022/08/19 09:50:12;;;;;;;4.65;2.63;;;;;;;;;;6370842;22;20006;-86
2022/08/19 09:52:38;;;;;;;5.05;2.30;;;;;;;;;;6371305;22;20005;-85
2022/08/19 09:55:08;;;;;;;7.03;2.88;;;;;;;;;;6371539;22;20005;-84
2022/08/19 09:57:34;;;;;;;4.13;2.65;;;;;;;;;;6371207;22;20421;-82
2022/08/19 09:59:59;;;;;;;3.72;2.20;;;;;;;;;;6371417;22;20002;-84
2022/08/19 10:02:25;;;;;;;4.05;2.50;;;;;;;;;;6371278;22;20447;-84
2022/08/19 10:07:36;;;;;;;6.28;3.03;;;;;;;;;;6371257;22;20039;-85
2022/08/19 10:10:03;;;;;;;3.78;2.28;;;;;;;;;;6370859;22;20003;-83
2022/08/19 10:12:29;;;;;;;3.00;2.60;;;;;;;;;;6370901;22;20002;-83
2022/08/19 10:14:55;;;;;;;2.30;2.10;;;;;;;;;;6371026;22;20047;-85
2022/08/19 10:17:21;;;;;;;5.80;2.80;;;;;;;;;;6370874;22;20069;-84
2022/08/19 10:19:46;;;;;;;4.45;2.70;;;;;;;;;;6370764;22;20098;-82
2022/08/19 10:22:13;;;;;;;4.80;3.20;;;;;;;;;;6370818;22;20388;-84
2022/08/19 10:24:39;;;;;;;6.43;3.30;;;;;;;;;;6371144;22;20306;-83
2022/08/19 10:27:05;;;;;;;4.28;2.90;;;;;;;;;;6370575;22;19998;-84
2022/08/19 10:29:31;;;;;;;3.53;2.40;;;;;;;;;;6371142;22;20424;-81
2022/08/19 10:31:59;;;;;;;4.07;2.63;;;;;;;;;;6371066;22;20003;-83
2022/08/19 10:34:28;;;;;;;4.63;2.72;;;;;;;;;;6370670;22;20085;-81
2022/08/19 10:36:55;;;;;;;6.60;2.45;;;;;;;;;;6370829;22;19999;-84
2022/08/19 10:39:21;;;;;;;4.50;2.35;;;;;;;;;;6370837;22;19999;-83
2022/08/19 10:41:47;;;;;;;4.28;2.50;;;;;;;;;;6342722;22;20037;-83
2022/08/19 10:44:13;;;;;;;3.90;2.20;;;;;;;;;;6370811;22;20424;-83
2022/08/19 10:46:41;;;;;;;2.92;2.20;;;;;;;;;;6370614;22;20325;-82
2022/08/19 10:49:09;;;;;;;3.65;2.17;;;;;;;;;;6370937;22;20118;-82
2022/08/19 10:54:19;;;;;;;3.90;2.33;;;;;;;;;;6370684;22;20059;-82
2022/08/19 10:56:51;;;;;;;2.83;2.10;;;;;;;;;;6370573;22;19995;-81
2022/08/19 10:59:22;;;;;;;3.28;2.05;;;;;;;;;;6370858;22;20026;-84
2022/08/19 11:01:49;;;;;;;3.15;2.22;;;;;;;;;;6371160;22;20006;-82
2022/08/19 11:04:17;;;;;;;5.45;2.20;;;;;;;;;;6373016;22;20002;-84
2022/08/19 11:06:47;;;;;;;4.25;3.28;;;;;;;;;;6372311;22;20329;-85
2022/08/19 11:09:15;;;;;;;7.45;3.90;;;;;;;;;;6372423;22;19998;-87
2022/08/19 11:11:41;;;;;;;6.00;3.90;;;;;;;;;;6345976;22;20006;-82
2022/08/19 11:14:12;;;;;;;7.15;3.88;;;;;;;;;;6373282;22;19994;-83
2022/08/19 11:16:38;;;;;;;5.70;3.13;;;;;;;;;;6372844;22;20002;-81
2022/08/19 11:19:07;;;;;;;4.20;3.17;;;;;;;;;;6372846;22;20043;-81
2022/08/19 11:21:35;;;;;;;8.50;4.43;;;;;;;;;;6372706;22;20003;-82
2022/08/19 11:24:05;;;;;;;5.60;3.47;;;;;;;;;;6372860;22;20005;-86
2022/08/19 11:26:32;;;;;;;5.75;3.20;;;;;;;;;;6373642;22;20025;-87
2022/08/19 11:28:58;;;;;;;6.13;3.25;;;;;;;;;;6372915;22;20327;-87
2022/08/19 11:31:27;;;;;;;3.83;3.03;;;;;;;;;;6372751;22;20002;-80
2022/08/19 11:33:53;;;;;;;6.88;3.28;;;;;;;;;;6344380;22;20399;-79
2022/08/19 11:36:20;;;;;;;5.75;2.70;;;;;;;;;;6373052;22;20076;-79
2022/08/19 11:38:48;;;;;;;7.40;3.88;;;;;;;;;;6372901;22;19998;-81
2022/08/19 11:41:15;;;;;;;5.47;3.30;;;;;;;;;;6372760;22;20002;-81
2022/08/19 11:43:41;;;;;;;8.32;3.90;;;;;;;;;;6372400;22;20082;-82
2022/08/19 17:05:19;;;;;;;4.07;1.70;;;;;;;;;;6306862;22;20023;-83
2022/08/19 17:07:44;;;;;;;10.68;2.50;;;;;;;;;;6309567;22;20315;-86
2022/08/19 17:10:10;;;;;;;2.38;1.50;;;;;;;;;;6309357;22;20030;-78
2022/08/19 17:12:36;;;;;;;2.58;1.60;;;;;;;;;;6309655;22;20010;-80
2022/08/19 17:15:03;;;;;;;5.18;1.80;;;;;;;;;;6309349;22;20003;-82
2022/08/19 17:17:30;;;;;;;4.65;1.95;;;;;;;;;;6309496;22;20003;-84
2022/08/19 17:19:59;;;;;;;3.78;2.00;;;;;;;;;;6309332;22;20373;-81
2022/08/19 17:22:24;;;;;;;3.35;1.38;;;;;;;;;;6308707;22;20003;-86
2022/08/19 17:24:50;;;;;;;2.65;1.42;;;;;;;;;;6309150;22;20006;-78
2022/08/19 17:27:15;;;;;;;2.72;1.60;;;;;;;;;;6308594;22;20441;-79
2022/08/19 17:29:41;;;;;;;4.55;1.48;;;;;;;;;;6309329;22;20007;-86
2022/08/19 17:32:06;;;;;;;3.05;1.70;;;;;;;;;;6309542;22;19995;-85
2022/08/19 17:34:32;;;;;;;4.95;2.35;;;;;;;;;;6311592;22;20062;-85
2022/08/19 17:36:58;;;;;;;4.47;1.77;;;;;;;;;;6309489;22;20029;-84
2022/08/19 17:39:24;;;;;;;5.10;1.70;;;;;;;;;;6309421;22;20064;-79
2022/08/19 17:41:50;;;;;;;2.83;1.55;;;;;;;;;;6309664;22;20052;-83
2022/08/19 17:44:16;;;;;;;2.88;1.50;;;;;;;;;;6310320;22;20039;-78
2022/08/19 17:46:41;;;;;;;6.22;1.75;;;;;;;;;;6281438;22;20045;-79
2022/08/19 17:49:07;;;;;;;3.08;1.30;;;;;;;;;;6309068;22;20003;-85
2022/08/19 17:51:32;;;;;;;3.83;1.60;;;;;;;;;;6281295;22;20052;-87
2022/08/19 17:53:58;;;;;;;4.43;1.30;;;;;;;;;;6308904;22;20006;-78
2022/08/19 17:56:23;;;;;;;2.55;1.38;;;;;;;;;;6310800;22;20003;-80
2022/08/19 17:58:50;;;;;;;3.28;1.13;;;;;;;;;;6310268;22;20003;-78
2022/08/19 18:01:16;;;;;;;2.88;1.23;;;;;;;;;;6309696;22;20086;-86
2022/08/19 18:03:41;;;;;;;1.48;1.27;;;;;;;;;;6309353;22;20355;-80
2022/08/19 18:06:08;;;;;;;4.72;1.30;;;;;;;;;;6281007;22;20015;-95
2022/08/19 18:08:38;;;;;;;3.30;1.40;;;;;;;;;;6308525;22;20003;-81
2022/08/19 18:11:03;;;;;;;;;;;;;;;;;;6308682;22;20030;-80
2022/08/19 18:13:29;;;;;;;4.95;2.10;;;;;;;;;;6308533;22;20242;-80
2022/08/19 18:15:56;;;;;;;3.38;1.83;;;;;;;;;;6281006;22;20090;-83
2022/08/19 18:18:22;;;;;;;4.60;1.63;;;;;;;;;;6308189;22;20003;-89
2022/08/19 18:20:47;;;;;;;3.47;1.48;;;;;;;;;;6308913;22;20082;-85
2022/08/19 18:23:13;;;;;;;1.80;1.42;;;;;;;;;;6308297;22;20011;-83
2022/08/19 18:25:38;;;;;;;2.60;1.55;;;;;;;;;;6308400;22;20022;-83
2022/08/19 18:28:04;;;;;;;1.83;1.27;;;;;;;;;;6308227;22;20078;-79
2022/08/19 18:30:33;;;;;;;6.57;2.20;;;;;;;;;;6308786;22;19999;-82
2022/08/19 18:33:00;;;;;;;5.53;1.40;;;;;;;;;;6308043;22;20315;-82
2022/08/19 18:35:28;;;;;;;1.98;1.20;;;;;;;;;;6307839;22;20006;-79
2022/08/19 18:37:59;;;;;;;2.00;1.70;;;;;;;;;;6308211;22;20003;-80
2022/08/19 18:51:11;;;;;;;2.53;1.27;;;;;;;;;;6308435;22;20075;-81
2022/08/19 18:53:39;;;;;;;2.97;1.55;;;;;;;;;;6307846;22;20003;-81
2022/08/19 18:56:06;;;;;;;5.10;2.38;;;;;;;;;;6307932;22;20060;-81
2022/08/19 18:58:33;;;;;;;3.88;1.50;;;;;;;;;;6308063;22;20000;-80
2022/08/19 19:01:09;;;;;;;4.95;1.60;;;;;;;;;;6307712;22;20012;-82
2022/08/19 19:03:38;;;;;;;1.20;1.10;;;;;;;;;;6308296;22;20006;-88
2022/08/19 19:06:05;;;;;;;2.33;1.80;;;;;;;;;;6309139;22;20030;-91
2022/08/19 19:08:31;;;;;;;2.15;1.40;;;;;;;;;;6308736;22;20475;-90
2022/08/19 19:11:03;;;;;;;4.35;2.60;;;;;;;;;;6309920;22;19995;-92
2022/08/19 19:13:30;;;;;;;7.38;4.10;;;;;;;;;;6310968;22;20060;-89
2022/08/19 19:15:56;;;;;;;2.58;1.77;;;;;;;;;;6309931;22;20006;-92
2022/08/19 19:18:21;;;;;;;5.22;1.92;;;;;;;;;;6308310;22;20003;-80
2022/08/19 19:20:47;;;;;;;3.60;1.50;;;;;;;;;;6308323;22;20003;-85
2022/08/19 19:23:12;;;;;;;2.38;1.67;;;;;;;;;;6309315;22;20041;-81
2022/08/19 19:25:38;;;;;;;2.78;1.67;;;;;;;;;;6309901;22;20038;-82
2022/08/19 19:28:04;;;;;;;2.20;1.60;;;;;;;;;;6310138;22;19999;-82
2022/08/19 19:30:30;;;;;;;3.95;1.50;;;;;;;;;;6309565;22;20014;-82
2022/08/19 19:32:56;;;;;;;2.28;1.55;;;;;;;;;;6309868;22;20013;-83
2022/08/19 19:35:22;;;;;;;3.25;1.30;;;;;;;;;;6282432;22;20065;-83
2022/08/19 19:37:51;;;;;;;4.93;2.60;;;;;;;;;;6309671;22;20003;-82
2022/08/19 19:40:21;;;;;;;5.13;2.20;;;;;;;;;;6310089;22;20418;-80
2022/08/19 19:42:47;;;;;;;3.47;1.67;;;;;;;;;;6309376;22;20003;-81
2022/08/19 19:45:14;;;;;;;3.38;2.00;;;;;;;;;;6309766;22;20003;-80
2022/08/19 19:47:43;;;;;;;3.50;2.30;;;;;;;;;;6309593;22;19999;-80
2022/08/19 19:50:11;;;;;;;6.65;2.72;;;;;;;;;;6309602;22;20007;-81
2022/08/19 19:52:38;;;;;;;3.67;2.63;;;;;;;;;;6309492;22;19995;-81
2022/08/19 19:55:04;;;;;;;5.60;2.80;;;;;;;;;;6282365;22;20426;-81
2022/08/19 19:57:29;;;;;;;2.28;1.70;;;;;;;;;;6309534;22;20006;-80
2022/08/19 19:59:55;;;;;;;5.93;1.90;;;;;;;;;;6309737;22;20367;-81
2022/08/19 20:02:21;;;;;;;3.90;1.92;;;;;;;;;;6309498;22;20039;-81
2022/08/19 20:04:47;;;;;;;3.85;1.50;;;;;;;;;;6309321;22;20133;-81
2022/08/19 20:07:13;;;;;;;3.30;1.60;;;;;;;;;;6309281;22;20056;-81
2022/08/19 20:09:38;;;;;;;2.83;1.30;;;;;;;;;;6309575;22;20011;-81
2022/08/19 20:12:04;;;;;;;2.72;1.80;;;;;;;;;;6309275;22;20006;-82
2022/08/19 20:14:34;;;;;;;2.55;1.38;;;;;;;;;;6281988;22;20360;-81
2022/08/19 20:17:01;;;;;;;3.95;2.38;;;;;;;;;;6309980;22;20437;-83
2022/08/19 20:19:35;;;;;;;4.20;1.63;;;;;;;;;;6309999;22;20019;-83
2022/08/19 20:22:01;;;;;;;3.25;1.70;;;;;;;;;;6310396;22;20027;-82
2022/08/19 20:24:33;;;;;;;2.45;1.80;;;;;;;;;;6309639;22;20481;-80
2022/08/19 20:27:01;;;;;;;2.95;1.52;;;;;;;;;;6309707;22;20011;-80
2022/08/19 20:29:27;;;;;;;2.88;1.83;;;;;;;;;;6309641;22;19999;-81
2022/08/19 20:31:54;;;;;;;2.13;1.58;;;;;;;;;;6309395;22;20326;-83
2022/08/19 20:34:19;;;;;;;3.17;1.60;;;;;;;;;;6309142;22;20048;-83
2022/08/19 20:36:45;;;;;;;2.92;1.42;;;;;;;;;;6282090;22;20003;-84
2022/08/19 20:39:13;;;;;;;2.13;1.50;;;;;;;;;;6310141;22;20015;-82
2022/08/19 20:41:38;;;;;;;1.73;1.63;;;;;;;;;;6309387;22;20430;-83
2022/08/19 20:44:05;;;;;;;2.88;1.40;;;;;;;;;;6309680;22;19999;-82
2022/08/19 20:46:31;;;;;;;3.03;2.17;;;;;;;;;;6309961;22;20002;-81
2022/08/19 20:48:57;;;;;;;3.60;2.00;;;;;;;;;;6309533;22;20003;-80
2022/08/19 20:51:25;;;;;;;5.03;1.80;;;;;;;;;;6309415;22;19999;-80
2022/08/19 20:53:50;;;;;;;2.42;1.73;;;;;;;;;;6309982;22;20318;-79
2022/08/19 20:56:16;;;;;;;1.85;1.60;;;;;;;;;;6309474;22;20014;-80
2022/08/19 20:58:41;;;;;;;5.30;1.95;;;;;;;;;;6309492;22;19999;-82
2022/08/19 21:01:09;;;;;;;4.22;1.98;;;;;;;;;;6308683;22;20331;-83
2022/08/19 21:03:40;;;;;;;2.95;1.92;;;;;;;;;;6309611;22;20003;-81
2022/08/19 21:06:07;;;;;;;4.50;1.70;;;;;;;;;;6309531;22;20039;-80
2022/08/19 21:08:33;;;;;;;1.75;1.52;;;;;;;;;;6309335;22;20322;-80
2022/08/19 21:10:59;;;;;;;2.33;1.35;;;;;;;;;;6309397;22;19991;-80
2022/08/19 21:13:25;;;;;;;3.78;1.70;;;;;;;;;;6309310;22;19999;-80
2022/08/19 21:15:51;;;;;;;1.98;1.50;;;;;;;;;;6309290;22;20291;-80
2022/08/19 21:18:19;;;;;;;5.82;2.90;;;;;;;;;;6309408;22;20007;-81
2022/08/19 21:20:46;;;;;;;3.05;2.70;;;;;;;;;;6281158;22;20053;-81
2022/08/19 21:23:16;;;;;;;5.05;2.38;;;;;;;;;;6309402;22;20007;-81
2022/08/19 21:25:42;;;;;;;3.50;2.22;;;;;;;;;;6309237;22;20440;-80
2022/08/19 21:28:08;;;;;;;2.55;1.65;;;;;;;;;;6308871;22;20007;-82
2022/08/19 21:30:34;;;;;;;4.55;1.40;;;;;;;;;;6308929;22;20004;-81
2022/08/19 21:33:02;;;;;;;1.50;1.40;;;;;;;;;;6309347;22;20392;-83
2022/08/19 21:35:28;;;;;;;2.78;1.58;;;;;;;;;;6309101;22;20426;-80
2022/08/19 21:37:56;;;;;;;3.45;1.42;;;;;;;;;;6309569;22;20003;-80
2022/08/19 21:40:24;;;;;;;2.97;1.58;;;;;;;;;;6281612;22;20003;-80
2022/08/19 21:42:49;;;;;;;2.75;2.05;;;;;;;;;;6310029;22;20015;-85
2022/08/19 21:45:16;;;;;;;3.50;1.48;;;;;;;;;;6308263;22;20434;-82
2022/08/19 21:47:42;;;;;;;2.65;1.67;;;;;;;;;;6308358;22;20004;-82
